Time;durP1;ratioP1;P1;durP2;ratioP2;P2;SDS_P1;SDS_P2;PMS_P1;PMS_P2;Temp;Humidity;BMP_temperature;BMP_pressure;BME280_temperature;BME280_humidity;BME280_pressure;Samples;Min_cycle;Max_cycle;Signal;HPM_P1;HPM_P2
2022/01/21 00:01:49;;;;;;;7.13;2.78;;;;;;;3.80;59.72;92969.34;5050786;28;20049;-84
2022/01/21 00:04:16;;;;;;;17.45;8.38;;;;;;;3.75;60.05;92969.84;5050767;28;20088;-84
2022/01/21 00:06:43;;;;;;;14.18;5.80;;;;;;;3.72;59.82;92971.00;5050668;28;20483;-84
2022/01/21 00:09:11;;;;;;;9.27;3.53;;;;;;;3.65;60.48;92964.22;5055873;28;20107;-83
2022/01/21 00:11:39;;;;;;;7.80;2.97;;;;;;;3.66;61.34;92979.28;5036050;28;20050;-82
2022/01/21 00:14:07;;;;;;;12.38;3.92;;;;;;;3.72;61.05;92993.84;5036335;28;20064;-83
2022/01/21 00:16:38;;;;;;;4.32;2.08;;;;;;;3.70;60.33;92992.44;5038143;28;20726;-83
2022/01/21 00:19:09;;;;;;;12.55;4.22;;;;;;;3.69;61.44;92984.03;5040745;28;20192;-83
2022/01/21 00:30:15;;;;;;;26.75;7.93;;;;;;;3.56;62.40;92994.78;5050485;28;20060;-82
2022/01/21 00:32:44;;;;;;;27.42;8.95;;;;;;;3.51;63.49;93002.13;5050435;28;20546;-83
2022/01/21 00:35:12;;;;;;;20.80;9.23;;;;;;;3.52;63.92;92998.59;5050500;28;20044;-83
2022/01/21 00:37:39;;;;;;;11.13;4.97;;;;;;;3.53;64.75;92999.41;5050428;28;20052;-83
2022/01/21 00:40:11;;;;;;;9.15;3.92;;;;;;;3.54;65.46;93013.69;5050462;28;20052;-83
2022/01/21 00:42:52;;;;;;;6.72;2.83;;;;;;;3.38;69.22;93004.44;5050252;28;20053;-84
2022/01/21 00:45:20;;;;;;;6.55;3.15;;;;;;;3.38;73.14;93025.53;5050509;28;20056;-83
2022/01/21 00:47:48;;;;;;;11.90;4.03;;;;;;;3.38;81.28;93024.75;5050319;28;20492;-83
2022/01/21 00:50:16;;;;;;;13.25;4.30;;;;;;;3.21;84.35;93014.72;5050313;28;20041;-83
2022/01/21 00:52:44;;;;;;;5.38;2.85;;;;;;;2.89;93.39;93008.88;5050232;28;20053;-84
2022/01/21 00:55:12;;;;;;;8.68;2.97;;;;;;;2.83;95.95;93017.16;5050311;28;20049;-83
2022/01/21 00:57:39;;;;;;;5.13;3.28;;;;;;;2.75;99.65;93031.47;5050735;28;20052;-83
2022/01/21 01:00:09;;;;;;;8.80;3.08;;;;;;;2.56;100.00;93016.66;5050236;28;20931;-84
2022/01/21 01:02:36;;;;;;;5.63;2.80;;;;;;;2.43;100.00;93017.16;5050373;28;20045;-83
2022/01/21 01:05:04;;;;;;;5.15;3.13;;;;;;;2.37;100.00;93013.56;5050365;28;20057;-82
2022/01/21 01:07:31;;;;;;;7.03;3.20;;;;;;;2.20;100.00;92987.47;5052163;28;20044;-83
2022/01/21 01:09:58;;;;;;;8.35;3.00;;;;;;;2.30;100.00;93007.56;5054160;28;20045;-83
2022/01/21 01:12:42;;;;;;;8.05;3.55;;;;;;;2.33;100.00;93002.16;5052872;28;20041;-83
2022/01/21 01:20:39;;;;;;;6.93;3.28;;;;;;;2.18;100.00;92982.56;5053893;28;20086;-82
2022/01/21 01:23:09;;;;;;;15.23;6.60;;;;;;;2.11;100.00;92962.16;5053587;28;20094;-82
2022/01/21 01:28:22;;;;;;;10.52;4.20;;;;;;;2.19;100.00;92966.41;5051854;28;20079;-82
2022/01/21 01:30:49;;;;;;;5.68;2.58;;;;;;;2.04;100.00;92928.28;5050273;28;20053;-82
2022/01/21 01:33:22;;;;;;;21.92;11.43;;;;;;;2.27;100.00;92963.06;5053242;28;20064;-84
2022/01/21 01:35:50;;;;;;;7.10;3.70;;;;;;;2.25;100.00;92958.16;5053470;28;20053;-82
2022/01/21 01:38:36;;;;;;;8.20;3.47;;;;;;;2.27;100.00;92948.63;5053623;28;20053;-82
2022/01/21 01:41:08;;;;;;;8.40;3.58;;;;;;;2.29;100.00;92948.47;5053398;28;20136;-81
2022/01/21 01:51:49;;;;;;;16.40;5.97;;;;;;;2.23;100.00;92944.84;5053299;28;20083;-82
2022/01/21 01:54:17;;;;;;;17.00;8.10;;;;;;;2.22;100.00;92933.13;5031665;28;20103;-82
2022/01/21 01:56:47;;;;;;;16.58;7.97;;;;;;;1.82;100.00;92879.94;5053303;28;20478;-82
2022/01/21 01:59:15;;;;;;;11.38;5.82;;;;;;;2.28;100.00;92941.84;5053074;28;20052;-82
2022/01/21 02:01:42;;;;;;;14.52;7.18;;;;;;;2.17;100.00;92925.22;5052935;28;20430;-83
2022/01/21 02:04:09;;;;;;;147.55;74.20;;;;;;;2.30;100.00;92934.84;5052947;28;20049;-83
2022/01/21 02:06:36;;;;;;;12.30;6.97;;;;;;;2.27;100.00;92914.91;5052917;28;20499;-82
2022/01/21 02:09:03;;;;;;;26.33;11.30;;;;;;;2.33;100.00;92934.53;5052934;28;20053;-82
2022/01/21 02:11:30;;;;;;;23.10;9.57;;;;;;;2.35;100.00;92931.81;5052891;28;20045;-83
2022/01/21 02:14:00;;;;;;;22.65;10.70;;;;;;;2.33;100.00;92926.13;5052809;28;20071;-81
2022/01/21 02:16:38;;;;;;;17.08;7.50;;;;;;;2.30;100.00;92927.25;5052683;28;20045;-81
2022/01/21 02:21:52;;;;;;;;;;;;;;;2.32;100.00;92927.06;5053230;28;20049;-82
2022/01/21 02:24:24;;;;;;;37.13;14.93;;;;;;;2.27;100.00;92920.75;5052706;28;19921;-83
2022/01/21 02:26:53;;;;;;;31.92;14.68;;;;;;;2.27;100.00;92930.13;5052656;28;20048;-83
2022/01/21 02:29:28;;;;;;;33.40;15.40;;;;;;;2.27;100.00;92930.13;5052582;28;20049;-83
2022/01/21 02:31:57;;;;;;;32.97;17.05;;;;;;;2.30;100.00;92937.38;5052434;28;20049;-83
2022/01/21 02:34:24;;;;;;;20.25;11.85;;;;;;;2.24;100.00;92923.63;5052491;28;20124;-84
2022/01/21 02:36:52;;;;;;;26.42;12.57;;;;;;;2.33;100.00;92937.06;5052377;28;20044;-84
2022/01/21 02:39:19;;;;;;;20.83;10.98;;;;;;;2.34;100.00;92936.09;5052387;28;20041;-85
2022/01/21 02:41:46;;;;;;;26.10;14.48;;;;;;;2.23;100.00;92914.44;5052314;28;20041;-86
2022/01/21 02:44:16;;;;;;;23.55;12.98;;;;;;;2.30;100.00;92924.69;5052357;28;20055;-86
2022/01/21 02:46:45;;;;;;;21.33;12.15;;;;;;;2.16;100.00;92905.91;5052310;28;20052;-86
2022/01/21 02:49:12;;;;;;;20.17;9.10;;;;;;;2.33;100.00;92933.72;5052364;28;20407;-87
2022/01/21 02:51:39;;;;;;;15.48;8.35;;;;;;;2.22;100.00;92915.38;5051891;28;20519;-88
2022/01/21 02:54:09;;;;;;;14.77;8.98;;;;;;;2.25;100.00;92924.41;5051994;28;20048;-89
2022/01/21 02:56:37;;;;;;;11.60;7.05;;;;;;;2.22;100.00;92929.81;5051831;28;20499;-92
2022/01/21 02:59:06;;;;;;;9.70;6.68;;;;;;;2.15;100.00;92937.28;5052207;28;20064;-95
2022/01/21 03:01:35;;;;;;;14.35;8.02;;;;;;;1.89;100.00;92907.16;5063917;28;20057;-96
2022/01/21 03:04:03;;;;;;;12.82;7.03;;;;;;;2.09;100.00;92930.34;5057798;28;20103;-94
2022/01/21 03:06:30;;;;;;;10.93;7.32;;;;;;;2.10;100.00;92925.13;5052297;28;20447;-92
2022/01/21 03:08:58;;;;;;;15.90;7.22;;;;;;;2.00;100.00;92912.63;5051778;28;20057;-89
2022/01/21 03:11:28;;;;;;;9.88;5.78;;;;;;;2.05;100.00;92918.94;5051742;28;20098;-87
2022/01/21 03:13:55;;;;;;;7.20;4.53;;;;;;;2.00;100.00;92911.84;5051636;28;20064;-86
2022/01/21 03:16:22;;;;;;;5.95;3.67;;;;;;;2.07;100.00;92912.75;5051585;28;20492;-86
2022/01/21 03:18:49;;;;;;;5.57;3.58;;;;;;;2.06;100.00;92906.13;5051341;28;20454;-86
2022/01/21 03:21:18;;;;;;;9.68;7.20;;;;;;;2.00;100.00;92915.16;5051363;28;20052;-85
2022/01/21 03:23:47;;;;;;;9.85;6.65;;;;;;;1.95;100.00;92912.31;5051764;28;20049;-85
2022/01/21 03:26:16;;;;;;;12.98;7.43;;;;;;;1.86;100.00;92916.63;5051543;28;20049;-85
2022/01/21 03:28:46;;;;;;;13.93;9.75;;;;;;;1.56;100.00;92916.41;5050827;28;20095;-86
2022/01/21 03:31:13;;;;;;;10.32;6.18;;;;;;;1.17;100.00;92920.41;5050854;28;20048;-85
2022/01/21 03:33:40;;;;;;;18.27;9.38;;;;;;;0.99;100.00;92932.44;5051139;28;20049;-85
2022/01/21 03:36:08;;;;;;;14.75;8.77;;;;;;;0.79;100.00;92925.94;5051110;28;20102;-85
2022/01/21 03:38:35;;;;;;;11.63;7.45;;;;;;;0.64;100.00;92930.81;5051392;28;20088;-85
2022/01/21 03:41:02;;;;;;;13.15;9.13;;;;;;;0.57;100.00;92932.38;5033089;28;20052;-85
2022/01/21 03:43:29;;;;;;;13.90;10.25;;;;;;;0.38;100.00;92923.34;5051108;28;20072;-84
2022/01/21 03:45:58;;;;;;;15.30;9.57;;;;;;;0.24;100.00;92922.19;5050819;28;20060;-84
2022/01/21 03:48:26;;;;;;;13.82;8.60;;;;;;;0.22;100.00;92934.97;5051005;28;21088;-84
2022/01/21 03:50:53;;;;;;;11.25;6.95;;;;;;;0.24;100.00;92932.31;5051192;28;20423;-84
2022/01/21 03:53:20;;;;;;;6.78;5.50;;;;;;;0.20;100.00;92931.81;5050972;28;20057;-85
2022/01/21 03:55:47;;;;;;;5.05;4.28;;;;;;;0.03;100.00;92935.22;5050955;28;20454;-85
2022/01/21 03:58:15;;;;;;;5.82;4.72;;;;;;;-0.10;100.00;92920.50;5050844;28;20058;-85
2022/01/21 04:00:44;;;;;;;6.30;5.10;;;;;;;0.03;100.00;92950.38;5050833;28;20049;-87
2022/01/21 04:03:13;;;;;;;9.85;6.07;;;;;;;0.03;100.00;92950.38;5050835;28;20505;-85
2022/01/21 04:05:40;;;;;;;7.25;5.22;;;;;;;-0.05;100.00;92939.28;5051033;28;20053;-88
2022/01/21 04:08:09;;;;;;;7.25;5.78;;;;;;;-0.31;100.00;92947.72;5050757;28;20095;-86
2022/01/21 04:10:38;;;;;;;2.20;1.48;;;;;;;-0.64;100.00;92962.66;5054766;28;20470;-92
2022/01/21 04:13:07;;;;;;;2.30;1.23;;;;;;;-0.83;100.00;92954.31;5051649;28;20048;-88
2022/01/21 04:15:52;;;;;;;3.90;1.40;;;;;;;-0.99;100.00;92952.44;5051582;28;20128;-90
2022/01/21 04:18:23;;;;;;;2.55;1.50;;;;;;;-0.79;100.00;92976.72;5051033;28;20411;-90
2022/01/21 04:20:52;;;;;;;4.85;3.05;;;;;;;-0.59;100.00;92993.28;5055542;28;20152;-90
2022/01/21 04:23:20;;;;;;;2.55;1.77;;;;;;;-0.59;100.00;92998.31;5060709;28;20049;-89
2022/01/21 04:25:47;;;;;;;4.43;2.47;;;;;;;-0.59;100.00;93003.38;5052294;28;20053;-88
2022/01/21 04:28:14;;;;;;;4.05;2.33;;;;;;;-0.55;100.00;93008.91;5050507;28;20567;-86
2022/01/21 04:30:45;;;;;;;4.32;2.33;;;;;;;-1.01;100.00;92961.09;5050760;28;20111;-88
2022/01/21 04:33:12;;;;;;;6.13;4.22;;;;;;;-0.75;100.00;93010.81;5050501;28;20439;-86
2022/01/21 04:35:41;;;;;;;3.08;1.73;;;;;;;-0.87;100.00;93016.06;5050562;28;20161;-86
2022/01/21 04:38:10;;;;;;;6.55;3.50;;;;;;;-0.85;100.00;93010.88;5050544;28;20997;-85
2022/01/21 04:40:44;;;;;;;4.75;2.50;;;;;;;-0.95;100.00;93023.56;5051456;28;20547;-84
2022/01/21 04:48:39;;;;;;;2.60;1.70;;;;;;;-1.06;100.00;93027.09;5054513;28;20090;-89
2022/01/21 04:51:27;;;;;;;2.42;1.30;;;;;;;-1.11;100.00;93032.53;5054632;28;20072;-90
2022/01/21 04:53:54;;;;;;;2.80;1.88;;;;;;;-1.06;100.00;93026.28;5054335;28;20045;-89
2022/01/21 04:56:23;;;;;;;14.40;7.38;;;;;;;-1.05;100.00;93026.16;5054231;28;20049;-92
2022/01/21 04:59:00;;;;;;;;;;;;;;;;;;;;;
2022/01/21 05:01:29;;;;;;;10.52;7.68;;;;;;;-1.21;100.00;93007.41;5049275;28;20083;-94
2022/01/21 05:03:57;;;;;;;9.93;7.45;;;;;;;-1.06;100.00;93049.78;5054999;28;20103;-93
2022/01/21 05:06:25;;;;;;;6.20;4.72;;;;;;;-1.30;100.00;93025.09;5054603;28;20041;-93
2022/01/21 05:08:54;;;;;;;5.82;4.05;;;;;;;-1.26;100.00;93039.00;5054404;28;20045;-94
2022/01/21 05:11:25;;;;;;;5.18;3.83;;;;;;;-1.26;100.00;93039.00;5053904;28;20045;-93
2022/01/21 05:13:56;;;;;;;3.50;1.75;;;;;;;-1.33;100.00;93048.06;5054242;28;20049;-92
2022/01/21 05:16:33;;;;;;;3.05;2.20;;;;;;;-1.30;100.00;93037.72;5055141;28;20071;-90
2022/01/21 05:19:32;;;;;;;2.80;1.98;;;;;;;-1.33;100.00;93045.53;5056660;28;20134;-89
2022/01/21 05:22:04;;;;;;;2.83;1.50;;;;;;;-1.49;100.00;93040.19;5054840;28;20041;-89
2022/01/21 05:24:34;;;;;;;3.50;2.08;;;;;;;-1.62;100.00;93034.69;5033402;28;20048;-88
2022/01/21 05:27:01;;;;;;;4.43;2.33;;;;;;;-1.69;100.00;93029.41;5053775;28;20045;-88
2022/01/21 05:29:30;;;;;;;5.20;3.05;;;;;;;-1.53;100.00;93058.25;5053574;28;20049;-87
2022/01/21 05:31:57;;;;;;;6.72;3.80;;;;;;;-1.37;100.00;93083.63;5053682;28;20111;-87
2022/01/21 05:34:24;;;;;;;5.18;2.55;;;;;;;-1.50;100.00;93081.44;5053621;28;20124;-89
2022/01/21 05:36:50;;;;;;;7.05;2.70;;;;;;;-1.46;100.00;93097.06;5053660;28;20114;-90
2022/01/21 05:39:19;;;;;;;6.72;4.15;;;;;;;-1.51;100.00;93084.88;5053480;28;20049;-87
2022/01/21 05:41:49;;;;;;;6.53;2.75;;;;;;;-1.39;100.00;93102.34;5053578;28;20045;-86
2022/01/21 05:46:22;;;;;;;5.53;2.65;;;;;;;-1.50;100.00;93095.75;5053511;28;20076;-90
2022/01/21 05:47:05;;;;;;;5.40;2.90;;;;;;;-1.36;100.00;93119.69;5053264;28;20522;-85
2022/01/21 05:49:35;;;;;;;4.68;3.10;;;;;;;-1.37;100.00;93121.44;5053497;28;20053;-86
2022/01/21 05:52:04;;;;;;;5.35;2.53;;;;;;;-1.37;100.00;93128.19;5052667;28;20080;-85
2022/01/21 05:54:33;;;;;;;3.03;2.10;;;;;;;-1.54;100.00;93125.47;5053158;28;20486;-86
2022/01/21 05:57:04;;;;;;;1.95;1.10;;;;;;;-1.56;100.00;93141.63;5053126;28;20103;-85
2022/01/21 05:59:31;;;;;;;3.00;1.50;;;;;;;-1.57;100.00;93153.44;5053163;28;20052;-86
2022/01/21 06:01:58;;;;;;;3.80;1.55;;;;;;;-1.54;100.00;93145.63;5053303;28;20098;-88
2022/01/21 06:04:25;;;;;;;1.90;0.95;;;;;;;-1.80;100.00;93147.94;5053169;28;20049;-84
2022/01/21 06:06:52;;;;;;;3.83;1.30;;;;;;;-2.00;100.00;93135.38;5052822;28;20053;-88
2022/01/21 06:09:19;;;;;;;2.20;1.30;;;;;;;-1.96;100.00;93156.84;5053271;28;20053;-88
2022/01/21 06:11:47;;;;;;;9.75;4.53;;;;;;;-2.05;100.00;93153.41;5052576;28;20190;-85
2022/01/21 06:14:13;;;;;;;3.40;1.63;;;;;;;-2.11;100.00;93153.13;5054378;28;20094;-84
2022/01/21 06:16:40;;;;;;;3.03;1.60;;;;;;;-2.03;100.00;93161.59;5053997;28;20407;-83
2022/01/21 06:19:07;;;;;;;3.40;1.88;;;;;;;-2.10;100.00;93163.06;5053988;28;20492;-85
2022/01/21 06:21:34;;;;;;;1.73;1.17;;;;;;;-2.17;100.00;93182.16;5053980;28;20549;-83
2022/01/21 06:24:01;;;;;;;2.72;1.40;;;;;;;-2.22;100.00;93179.25;5053901;28;20401;-85
2022/01/21 06:26:28;;;;;;;7.00;4.82;;;;;;;-2.20;100.00;93188.25;5053695;28;20041;-85
2022/01/21 06:28:56;;;;;;;4.88;1.88;;;;;;;-2.53;100.00;93184.38;5053861;28;20044;-88
2022/01/21 06:31:23;;;;;;;3.45;2.00;;;;;;;-2.52;100.00;93198.53;5054177;28;20048;-86
2022/01/21 06:33:54;;;;;;;4.53;2.58;;;;;;;-2.74;100.00;93176.00;5053903;28;20048;-85
2022/01/21 06:36:23;;;;;;;7.45;2.42;;;;;;;-2.56;100.00;93211.38;5053688;28;20049;-87
2022/01/21 06:38:52;;;;;;;3.30;2.08;;;;;;;-2.51;100.00;93200.13;5053548;28;20052;-87
2022/01/21 06:41:19;;;;;;;5.85;3.90;;;;;;;-2.46;100.00;93180.44;5053731;28;20399;-89
2022/01/21 06:43:48;;;;;;;10.15;6.00;;;;;;;-2.37;100.00;93214.06;5053634;28;20480;-88
2022/01/21 06:46:16;;;;;;;9.65;5.20;;;;;;;-2.51;100.00;93213.50;5053707;28;20056;-91
2022/01/21 06:48:43;;;;;;;7.43;3.67;;;;;;;-2.60;100.00;93229.38;5053450;28;20045;-88
2022/01/21 06:51:14;;;;;;;9.13;4.53;;;;;;;-2.50;100.00;93237.72;5053080;28;20049;-89
2022/01/21 06:53:42;;;;;;;9.95;4.50;;;;;;;-2.61;100.00;93237.81;5054094;28;20055;-89
2022/01/21 06:56:11;;;;;;;4.13;2.33;;;;;;;-3.04;100.00;93212.03;5057095;28;20072;-91
2022/01/21 06:58:38;;;;;;;4.57;2.28;;;;;;;-2.90;100.00;93223.44;5071620;28;20420;-91
2022/01/21 07:01:05;;;;;;;6.97;2.63;;;;;;;-3.02;100.00;93235.34;5062369;28;20045;-91
2022/01/21 07:03:43;;;;;;;4.55;2.30;;;;;;;-2.77;100.00;93271.00;5051972;28;20051;-88
2022/01/21 07:06:10;;;;;;;5.13;2.78;;;;;;;-2.72;100.00;93266.38;5053397;28;20095;-87
2022/01/21 07:08:40;;;;;;;4.38;2.40;;;;;;;-2.70;100.00;93287.16;5053024;28;20041;-89
2022/01/21 07:11:09;;;;;;;4.28;2.40;;;;;;;-2.85;100.00;93295.06;5052634;28;20060;-88
2022/01/21 07:13:36;;;;;;;5.22;2.80;;;;;;;-3.13;100.00;93242.03;5051828;28;20048;-88
2022/01/21 07:16:07;;;;;;;8.88;4.72;;;;;;;-2.64;100.00;93288.38;5051596;28;20102;-90
2022/01/21 07:18:42;;;;;;;9.48;5.18;;;;;;;-2.58;100.00;93292.91;5051565;28;20143;-87
2022/01/21 07:21:08;;;;;;;6.28;3.17;;;;;;;-2.81;100.00;93245.31;5051795;28;20435;-88
2022/01/21 07:23:35;;;;;;;11.55;6.88;;;;;;;-2.40;100.00;93293.09;5051601;28;20049;-88
2022/01/21 07:26:06;;;;;;;7.57;4.55;;;;;;;-2.34;100.00;93307.69;5051527;28;20041;-87
2022/01/21 07:28:34;;;;;;;8.70;4.35;;;;;;;-2.50;100.00;93297.31;5051565;28;20446;-88
2022/01/21 07:31:01;;;;;;;11.45;6.53;;;;;;;-2.35;100.00;93310.31;5051203;28;20071;-88
2022/01/21 07:33:37;;;;;;;;;;;;;;;;;;;;;
2022/01/21 07:36:06;;;;;;;17.45;11.90;;;;;;;-2.37;100.00;93302.13;5049048;28;20044;-87
2022/01/21 07:38:33;;;;;;;19.70;13.00;;;;;;;-2.18;100.00;93329.06;5051168;28;20053;-88
2022/01/21 07:41:03;;;;;;;8.52;5.32;;;;;;;-2.30;100.00;93314.03;5051242;28;20045;-88
2022/01/21 07:43:30;;;;;;;8.18;4.38;;;;;;;-2.66;100.00;93285.19;5051700;28;20399;-89
2022/01/21 07:46:13;;;;;;;;;;;;;;;;;;;;;
2022/01/21 07:48:40;;;;;;;14.45;7.10;;;;;;;-2.88;100.00;93327.97;5049269;28;20411;-87
2022/01/21 07:51:10;;;;;;;6.45;3.72;;;;;;;-2.95;100.00;93335.22;5051086;28;20106;-87
2022/01/21 07:53:37;;;;;;;28.05;13.10;;;;;;;-2.86;100.00;93332.88;5051004;28;20045;-87
2022/01/21 07:56:07;;;;;;;8.23;4.30;;;;;;;-3.03;100.00;93326.69;5051154;28;20080;-89
2022/01/21 07:58:36;;;;;;;11.55;7.25;;;;;;;-3.01;100.00;93322.38;5050890;28;20057;-88
2022/01/21 08:01:05;;;;;;;10.60;7.40;;;;;;;-2.87;100.00;93338.84;5051001;28;20052;-90
2022/01/21 08:03:32;;;;;;;5.30;4.15;;;;;;;-2.85;100.00;93329.44;5051335;28;20368;-87
2022/01/21 08:06:16;;;;;;;;;;;;;;;;;;;;;
2022/01/21 08:08:45;;;;;;;5.57;3.47;;;;;;;-3.05;100.00;93344.44;5050480;28;20045;-92
2022/01/21 08:11:12;;;;;;;6.28;3.33;;;;;;;-3.01;100.00;93352.53;5050727;28;20049;-88
2022/01/21 08:13:39;;;;;;;7.22;4.20;;;;;;;-3.06;100.00;93352.88;5050701;28;20048;-88
2022/01/21 08:16:17;;;;;;;;;;;;;;;;;;;;;
2022/01/21 08:18:49;;;;;;;9.18;5.97;;;;;;;-2.92;100.00;93363.56;5050236;28;20056;-88
2022/01/21 08:21:23;;;;;;;15.30;7.82;;;;;;;-2.84;100.00;93372.06;5051217;28;20048;-88
2022/01/21 08:23:58;;;;;;;8.35;4.70;;;;;;;-2.86;100.00;93388.19;5051404;28;20522;-88
2022/01/21 08:26:39;;;;;;;;;;;;;;;;;;;;;
2022/01/21 08:29:20;;;;;;;;;;;;;;;;;;;;;
2022/01/21 08:31:54;;;;;;;8.98;4.63;;;;;;;-3.04;100.00;93353.56;5045490;28;20415;-90
2022/01/21 08:34:32;;;;;;;;;;;;;;;;;;;;;
2022/01/21 08:37:06;;;;;;;53.13;24.38;;;;;;;-3.04;100.00;93317.56;5049478;28;20060;-92
2022/01/21 09:56:09;;;;;;;11.95;5.60;;;;;;;-0.25;100.00;93355.25;4627839;30;20068;-92
2022/01/21 09:58:38;;;;;;;9.02;4.55;;;;;;;-0.10;100.00;93348.00;4714438;30;20056;-87
2022/01/21 10:01:06;;;;;;;4.05;2.25;;;;;;;-0.15;100.00;93347.63;4773931;29;20123;-88
2022/01/21 10:03:34;;;;;;;7.35;4.03;;;;;;;-0.16;100.00;93334.22;4876865;29;20056;-87
2022/01/21 10:06:02;;;;;;;4.35;3.10;;;;;;;0.02;100.00;93347.81;4876809;29;20519;-87
2022/01/21 10:08:36;;;;;;;7.82;4.60;;;;;;;0.04;100.00;93348.47;4879213;29;20060;-87
2022/01/21 10:11:06;;;;;;;24.85;17.10;;;;;;;-0.14;100.00;93344.97;4944459;29;20580;-89
2022/01/21 10:13:35;;;;;;;14.43;8.70;;;;;;;-0.33;100.00;93335.75;4952377;29;20051;-87
2022/01/21 10:16:03;;;;;;;11.38;5.70;;;;;;;-0.20;100.00;93322.81;4952471;29;20051;-91
2022/01/21 10:18:31;;;;;;;12.52;7.28;;;;;;;0.18;100.00;93332.81;4972947;28;20468;-89
2022/01/21 10:21:02;;;;;;;13.50;6.68;;;;;;;0.37;100.00;93326.84;5012950;28;20054;-89
2022/01/21 10:23:35;;;;;;;7.45;4.35;;;;;;;0.45;100.00;93336.22;5012773;28;20571;-89
2022/01/21 10:26:08;;;;;;;12.93;5.93;;;;;;;-0.16;100.00;93272.81;5012779;28;20049;-88
2022/01/21 10:28:39;;;;;;;11.05;5.88;;;;;;;0.16;100.00;93304.38;5012755;28;20496;-91
2022/01/21 10:31:18;;;;;;;12.70;6.15;;;;;;;0.48;100.00;93325.03;5027460;28;20045;-89
2022/01/21 10:33:47;;;;;;;14.93;8.50;;;;;;;0.61;100.00;93324.69;5032755;28;20060;-89
2022/01/21 10:36:23;;;;;;;9.13;4.90;;;;;;;0.61;100.00;93317.88;5032287;28;20518;-91
2022/01/21 10:39:07;;;;;;;;;;;;;;;;;;;;;
2022/01/21 10:41:57;;;;;;;4.85;2.83;;;;;;;-0.56;92.83;93225.09;5025880;28;20064;-91
2022/01/21 10:44:28;;;;;;;38.10;24.50;;;;;;;-0.27;95.79;93319.25;5032234;28;20534;-88
2022/01/21 10:47:09;;;;;;;23.88;16.02;;;;;;;0.10;100.00;93300.69;5032092;28;20591;-89
2022/01/21 10:49:40;;;;;;;6.53;4.13;;;;;;;-0.02;95.13;93311.94;5032284;28;20053;-91
2022/01/21 10:52:19;;;;;;;;;;;;;;;;;;;;;
2022/01/21 10:54:53;;;;;;;8.05;4.32;;;;;;;0.37;100.00;93300.78;5026157;28;20064;-89
2022/01/21 10:57:57;;;;;;;;;;;;;;;;;;;;;
2022/01/21 11:00:26;;;;;;;10.60;5.10;;;;;;;0.59;100.00;93301.25;4928731;29;20048;-89
2022/01/21 11:02:54;;;;;;;10.30;5.47;;;;;;;0.77;99.37;93299.53;5000847;28;20515;-88
2022/01/21 11:05:30;;;;;;;8.15;4.72;;;;;;;0.72;97.09;93296.63;5031790;28;20050;-88
2022/01/21 11:08:03;;;;;;;7.65;3.10;;;;;;;0.98;100.00;93295.06;5031994;28;20055;-91
2022/01/21 11:10:53;;;;;;;3.40;1.58;;;;;;;1.01;93.27;93275.31;5031603;28;20064;-90
2022/01/21 11:13:37;;;;;;;13.63;8.65;;;;;;;0.68;92.70;93292.81;5011993;28;20048;-88
2022/01/21 11:16:16;;;;;;;6.18;2.75;;;;;;;0.75;98.33;93295.56;5031554;28;20045;-88
2022/01/21 11:18:52;;;;;;;5.13;2.55;;;;;;;0.94;98.97;93289.50;5031661;28;20045;-91
2022/01/21 11:21:37;;;;;;;5.72;3.20;;;;;;;1.14;100.00;93295.16;5041590;28;20049;-90
2022/01/21 11:24:11;;;;;;;9.10;4.75;;;;;;;0.88;99.09;93280.78;5051531;28;20044;-89
2022/01/21 11:26:39;;;;;;;7.95;4.13;;;;;;;0.50;95.18;93280.19;5043799;28;20514;-91
2022/01/21 11:29:08;;;;;;;5.05;3.58;;;;;;;0.80;99.58;93283.25;5043502;28;20052;-91
2022/01/21 11:31:36;;;;;;;8.30;3.40;;;;;;;1.02;99.56;93293.84;5031905;28;20049;-92
2022/01/21 11:34:02;;;;;;;6.40;3.10;;;;;;;0.73;96.24;93255.25;5031469;28;20057;-91
2022/01/21 11:36:33;;;;;;;5.65;3.47;;;;;;;0.68;95.56;93269.28;5031231;28;20059;-92
2022/01/21 11:39:11;;;;;;;5.57;3.35;;;;;;;0.30;95.05;93269.44;5031431;28;20496;-92
2022/01/21 11:41:50;;;;;;;12.60;7.43;;;;;;;0.25;91.61;93292.63;5023759;28;20132;-92
2022/01/21 12:41:48;;;;;;;;;;;;;;;;;;;;;
2022/01/21 12:44:50;;;;;;;;;;;;;;;;;;;;;
2022/01/21 12:47:31;;;;;;;6.53;3.80;;;;;;;0.14;100.00;93250.69;4939712;29;20138;-87
2022/01/21 12:50:06;;;;;;;8.13;5.03;;;;;;;0.02;100.00;93234.97;4932406;29;20141;-87
2022/01/21 12:52:45;;;;;;;6.32;3.95;;;;;;;0.11;100.00;93250.97;4932758;28;20054;-89
2022/01/21 12:58:18;;;;;;;5.60;3.50;;;;;;;-0.33;100.00;93259.25;4969537;28;20094;-89
2022/01/21 13:00:48;;;;;;;7.18;4.10;;;;;;;-0.05;100.00;93251.63;4974817;28;20059;-88
2022/01/21 13:03:34;;;;;;;10.93;4.55;;;;;;;0.21;100.00;93254.22;5033691;28;20516;-88
2022/01/21 13:06:18;;;;;;;12.32;5.28;;;;;;;0.16;99.18;93269.03;5034119;28;20045;-89
2022/01/21 13:09:17;;;;;;;12.15;6.47;;;;;;;-0.04;99.34;93278.47;5027739;28;20062;-89
2022/01/21 13:12:04;;;;;;;;;;;;;;;;;;;;;
2022/01/21 13:14:45;;;;;;;;;;;;;;;;;;;;;
2022/01/21 13:17:15;;;;;;;10.07;4.30;;;;;;;-0.28;99.96;93278.06;5033496;28;20057;-83
2022/01/21 13:19:47;;;;;;;12.60;4.90;;;;;;;-0.19;99.40;93284.00;5034435;28;20049;-86
2022/01/21 13:22:52;;;;;;;11.30;5.00;;;;;;;-0.17;99.44;93278.81;5033858;28;20492;-94
2022/01/21 13:26:28;;;;;;;;;;;;;;;;;;;;;
2022/01/21 14:06:35;;;;;;;7.43;4.95;;;;;;;-1.31;100.00;93278.84;4931644;29;20046;-88
2022/01/21 14:09:08;;;;;;;8.60;4.38;;;;;;;-1.31;100.00;93288.13;4964164;28;20421;-89
2022/01/21 14:14:57;;;;;;;10.75;5.97;;;;;;;-1.26;100.00;93293.53;4993265;28;20564;-89
2022/01/21 14:17:41;;;;;;;9.48;5.35;;;;;;;-1.28;100.00;93287.84;4993619;28;20121;-90
2022/01/21 14:23:46;;;;;;;11.60;6.03;;;;;;;-1.71;100.00;93242.81;4990425;28;20112;-90
2022/01/21 14:26:15;;;;;;;22.40;11.23;;;;;;;-1.36;100.00;93278.44;5018665;28;20046;-89
2022/01/21 14:29:05;;;;;;;27.75;8.20;;;;;;;-1.55;100.00;93289.31;5035401;28;20550;-89
2022/01/21 14:52:42;;;;;;;19.77;12.55;;;;;;;-1.33;100.00;93278.19;4920709;28;20054;-90
2022/01/21 14:56:03;;;;;;;;;;;;;;;;;;;;;
2022/01/21 15:02:29;;;;;;;24.33;11.63;;;;;;;-2.36;100.00;93155.28;4971117;28;20050;-89
2022/01/21 15:04:57;;;;;;;26.15;12.35;;;;;;;-1.37;99.30;93297.00;4986656;28;20677;-89
2022/01/21 15:07:25;;;;;;;26.17;12.38;;;;;;;-1.21;100.00;93283.84;4990526;28;20473;-90
2022/01/21 15:09:54;;;;;;;31.08;17.10;;;;;;;-1.22;100.00;93290.63;5025314;28;20496;-88
2022/01/21 15:15:37;;;;;;;;;;;;;;;;;;;;;
2022/01/21 15:18:06;;;;;;;13.20;6.30;;;;;;;-1.72;98.08;93268.13;5025609;28;20411;-89
2022/01/21 15:20:37;;;;;;;17.45;9.07;;;;;;;-1.79;95.12;93293.06;5030346;28;20053;-88
2022/01/21 15:23:06;;;;;;;11.68;7.13;;;;;;;-1.81;99.44;93289.88;5031036;28;20045;-85
2022/01/21 15:25:34;;;;;;;13.68;7.05;;;;;;;-1.97;98.46;93292.91;5031403;28;20061;-89
2022/01/21 15:28:03;;;;;;;10.25;5.10;;;;;;;-1.78;100.00;93277.00;5031312;28;20056;-89
2022/01/21 15:30:30;;;;;;;10.80;6.10;;;;;;;-1.91;98.56;93289.84;5031876;28;20053;-88
2022/01/21 15:32:59;;;;;;;9.20;5.68;;;;;;;-1.80;98.70;93283.91;5038819;28;20454;-89
2022/01/21 15:35:31;;;;;;;9.73;6.53;;;;;;;-1.80;98.85;93279.66;5050374;28;20492;-91
2022/01/21 15:37:58;;;;;;;10.35;6.95;;;;;;;-1.75;99.61;93285.09;5051209;28;20048;-89
2022/01/21 15:40:28;;;;;;;15.73;9.95;;;;;;;-1.88;99.21;93282.84;5050837;28;20404;-86
2022/01/21 15:42:57;;;;;;;18.50;11.40;;;;;;;-2.19;100.00;93282.94;5051401;28;20053;-88
2022/01/21 15:45:24;;;;;;;17.23;10.30;;;;;;;-2.12;100.00;93285.75;5051264;28;20063;-86
2022/01/21 15:47:54;;;;;;;20.00;12.73;;;;;;;-2.34;100.00;93269.13;5051337;28;20045;-87
2022/01/21 15:50:23;;;;;;;30.20;17.33;;;;;;;-2.81;100.00;93280.53;5051041;28;20049;-87
2022/01/21 15:52:53;;;;;;;20.98;13.80;;;;;;;-2.92;100.00;93275.59;5051048;28;20543;-87
2022/01/21 15:55:25;;;;;;;48.88;21.70;;;;;;;-3.26;100.00;93256.50;5051283;28;20500;-88
2022/01/21 15:58:00;;;;;;;49.08;21.50;;;;;;;-3.18;100.00;93266.72;5053898;28;20049;-88
2022/01/21 16:00:27;;;;;;;22.25;13.82;;;;;;;-3.44;100.00;93257.06;5051273;28;20046;-87
2022/01/21 16:03:00;;;;;;;295.63;113.43;;;;;;;-3.28;100.00;93279.22;5051108;28;20510;-87
2022/01/21 16:05:35;;;;;;;228.30;89.10;;;;;;;-3.36;100.00;93272.31;5051802;28;20055;-87
2022/01/21 16:08:06;;;;;;;46.00;29.53;;;;;;;-3.39;100.00;93276.78;5051035;28;20091;-87
2022/01/21 16:10:34;;;;;;;111.63;49.17;;;;;;;-3.32;100.00;93272.06;5051103;28;20045;-87
2022/01/21 16:13:01;;;;;;;28.45;16.13;;;;;;;-3.27;100.00;93267.47;5051265;28;20048;-86